Terminal Aerodrome Forecast
Issued by NWS Twin Cities, MN

Home | Current Version | Previous Version | Text Only | Print | Product List | Glossary Off
Versions: 1 2 3 4 5 6 7 8 9 10 11 12

013
FTUS43 KMPX 172330
TAFSTC
TAF
KSTC 172330Z 1800/1824 22007KT P6SM SKC
     FM180700 20005KT P6SM FEW250 WS020/23035KT
     FM181400 21010KT P6SM SCT250
     FM181700 25013G20KT P6SM SCT250
     FM182000 29014G22KT P6SM FEW250=

USA.gov is the U.S. government's official web portal to all federal, state and local government web resources and services.